createdAt,value
2019-04-11T00:00:46.004Z,98924.59
2019-04-11T00:03:21.625Z,98913.41
2019-04-11T00:05:56.197Z,98924.25
2019-04-11T00:08:30.437Z,98923.58
2019-04-11T00:11:05.845Z,98927.28
2019-04-11T00:13:41.135Z,98930.42
2019-04-11T00:16:15.288Z,98927.89
2019-04-11T00:18:49.839Z,98929.30
2019-04-11T00:21:25.687Z,98927.48
2019-04-11T00:24:00.667Z,98939.19
2019-04-11T00:26:36.088Z,98941.16
2019-04-11T00:29:10.469Z,98952.00
2019-04-11T00:31:45.181Z,98953.97
2019-04-11T00:34:20.723Z,98950.11
2019-04-11T00:36:55.068Z,98950.88
2019-04-11T00:39:29.939Z,98947.33
2019-04-11T00:42:04.083Z,98952.00
2019-04-11T00:44:38.957Z,98951.04
2019-04-11T00:47:13.357Z,98946.47
2019-04-11T00:49:48.470Z,98950.52
2019-04-11T00:52:23.384Z,98957.97
2019-04-11T00:54:57.552Z,98959.34
2019-04-11T00:57:32.750Z,98953.91
2019-04-11T01:00:07.399Z,98962.63
2019-04-11T01:02:43.266Z,98964.05
2019-04-11T01:05:18.755Z,98969.31
2019-04-11T01:07:53.400Z,98972.05
2019-04-11T01:10:27.617Z,98979.28
2019-04-11T01:13:01.782Z,98986.38
2019-04-11T01:15:36.970Z,98982.23
2019-04-11T01:18:12.246Z,98989.95
2019-04-11T01:20:46.603Z,98987.70
2019-04-11T01:23:20.863Z,98988.25
2019-04-11T01:25:57.032Z,98994.42
2019-04-11T01:28:31.369Z,98998.23
2019-04-11T01:31:09.473Z,99000.96
2019-04-11T01:33:44.289Z,98999.68
2019-04-11T01:36:20.438Z,98999.69
2019-04-11T01:38:57.236Z,99000.36
2019-04-11T01:41:31.305Z,99001.83
2019-04-11T01:44:07.103Z,99003.25
2019-04-11T01:46:40.602Z,99009.59
2019-04-11T01:49:18.412Z,99011.53
2019-04-11T01:51:52.207Z,99012.77
2019-04-11T01:54:26.465Z,99021.94
2019-04-11T01:57:01.362Z,99017.84
2019-04-11T01:59:35.665Z,99022.33
2019-04-11T02:02:42.268Z,99029.66
2019-04-11T02:05:25.262Z,99023.07
2019-04-11T02:07:59.478Z,99028.42
2019-04-11T02:10:35.034Z,99027.91
2019-04-11T02:13:09.921Z,99030.66
2019-04-11T02:15:44.233Z,99031.08
2019-04-11T02:18:19.360Z,99036.67
2019-04-11T02:20:54.346Z,99038.97
2019-04-11T02:23:46.237Z,99036.48
2019-04-11T02:26:25.231Z,99039.41
2019-04-11T02:28:59.436Z,99039.53
2019-04-11T02:31:34.946Z,99044.00
2019-04-11T02:34:11.389Z,99037.41
2019-04-11T02:36:46.585Z,99039.00
2019-04-11T02:39:22.556Z,99035.31
2019-04-11T02:41:57.028Z,99035.80
2019-04-11T02:44:46.161Z,99035.99
2019-04-11T02:47:13.653Z,99038.92
2019-04-11T02:49:45.530Z,99043.56
2019-04-11T02:52:20.344Z,99044.06
2019-04-11T02:54:54.665Z,99048.13
2019-04-11T02:57:29.919Z,99045.99
2019-04-11T03:00:06.792Z,99050.00
2019-04-11T03:02:42.517Z,99044.66
2019-04-11T03:05:18.441Z,99049.75
2019-04-11T03:07:54.094Z,99052.64
2019-04-11T03:10:29.026Z,99056.16
2019-04-11T03:13:04.585Z,99056.19
2019-04-11T03:15:57.559Z,99056.58
2019-04-11T03:18:35.716Z,99060.30
2019-04-11T03:20:56.795Z,99062.00
2019-04-11T03:23:28.563Z,99058.99
2019-04-11T03:26:05.287Z,99057.50
2019-04-11T03:28:42.535Z,99062.23
2019-04-11T03:31:50.573Z,99055.13
2019-04-11T03:39:28.135Z,99043.89
2019-04-11T03:41:59.869Z,99049.01
2019-04-11T03:44:25.402Z,99050.88
2019-04-11T03:47:11.320Z,99054.44
2019-04-11T03:49:43.373Z,99054.70
2019-04-11T03:52:10.631Z,99057.74
2019-04-11T03:54:47.385Z,99062.13
2019-04-11T03:57:23.621Z,99065.68
2019-04-11T03:59:58.851Z,99068.42
2019-04-11T04:02:34.877Z,99065.42
2019-04-11T04:05:10.646Z,99071.45
2019-04-11T04:07:46.551Z,99073.97
2019-04-11T04:10:23.618Z,99072.05
2019-04-11T04:12:59.887Z,99067.66
2019-04-11T04:16:08.194Z,99068.77
2019-04-11T04:18:43.730Z,99069.62
2019-04-11T04:21:33.238Z,99067.17
2019-04-11T04:24:28.787Z,99070.20
2019-04-11T04:27:04.513Z,99060.62
2019-04-11T04:29:41.351Z,99058.44
2019-04-11T04:32:16.450Z,99062.00
2019-04-11T04:34:53.130Z,99056.24
2019-04-11T04:37:27.412Z,99053.08
2019-04-11T04:40:21.669Z,99055.33
2019-04-11T04:42:46.072Z,99055.67
2019-04-11T04:45:16.233Z,99054.01
2019-04-11T04:47:57.035Z,99061.16
2019-04-11T04:50:28.713Z,99058.40
2019-04-11T04:53:05.135Z,99054.86
2019-04-11T04:55:41.218Z,99046.34
2019-04-11T04:58:17.831Z,99046.62
2019-04-11T05:00:53.854Z,99041.08
2019-04-11T05:03:27.547Z,99036.55
2019-04-11T05:06:03.872Z,99033.27
2019-04-11T05:08:39.051Z,99031.10
2019-04-11T05:11:13.978Z,99023.11
2019-04-11T05:13:51.164Z,99018.39
2019-04-11T05:16:24.279Z,99024.72
2019-04-11T05:18:59.452Z,99018.94
2019-04-11T05:21:33.749Z,99021.39
2019-04-11T05:24:07.784Z,99022.79
2019-04-11T05:26:41.834Z,99019.48
2019-04-11T05:29:17.439Z,99014.84
2019-04-11T05:31:51.802Z,99013.45
2019-04-11T05:34:25.930Z,99014.89
2019-04-11T05:37:00.296Z,99015.45
2019-04-11T05:39:34.431Z,99010.27
2019-04-11T05:42:09.173Z,99008.63
2019-04-11T05:44:43.354Z,99004.79
2019-04-11T05:47:18.883Z,99000.91
2019-04-11T05:50:09.235Z,98998.73
2019-04-11T05:52:42.539Z,99003.41
2019-04-11T05:55:17.667Z,99000.11
2019-04-11T05:57:52.318Z,98997.09
2019-04-11T06:00:48.906Z,98988.84
2019-04-11T06:03:23.955Z,98986.09
2019-04-11T06:06:36.946Z,98979.50
2019-04-11T06:09:16.474Z,98974.89
2019-04-11T06:12:09.418Z,98971.54
2019-04-11T06:14:52.024Z,98970.48
2019-04-11T06:17:26.570Z,98970.48
2019-04-11T06:20:17.784Z,98956.99
2019-04-11T06:23:05.039Z,98950.69
2019-04-11T06:26:02.142Z,98950.67
2019-04-11T06:28:36.742Z,98946.83
2019-04-11T06:31:28.213Z,98937.73
2019-04-11T06:34:05.510Z,98938.56
2019-04-11T06:36:57.192Z,98928.38
2019-04-11T06:39:46.056Z,98933.05
2019-04-11T06:42:30.280Z,98928.09
2019-04-11T06:45:21.713Z,98928.11
2019-04-11T06:48:13.572Z,98917.10
2019-04-11T06:51:11.583Z,98917.39
2019-04-11T06:53:54.642Z,98909.95
2019-04-11T06:56:50.881Z,98907.45
2019-04-11T06:59:34.375Z,98899.22
2019-04-11T07:02:17.983Z,98896.45
2019-04-11T07:05:04.717Z,98890.41
2019-04-11T07:07:39.255Z,98896.20
2019-04-11T07:10:26.569Z,98886.56
2019-04-11T07:13:08.333Z,98882.69
2019-04-11T07:15:48.501Z,98876.91
2019-04-11T07:18:40.200Z,98876.38
2019-04-11T07:21:14.996Z,98868.11
2019-04-11T07:24:07.492Z,98860.67
2019-04-11T07:26:45.864Z,98859.55
2019-04-11T07:29:44.836Z,98848.25
2019-04-11T07:32:20.292Z,98849.34
2019-04-11T07:35:12.868Z,98843.31
2019-04-11T07:37:49.349Z,98837.52
2019-04-11T07:40:51.916Z,98833.11
2019-04-11T07:43:33.413Z,98824.55
2019-04-11T07:46:27.448Z,98818.21
2019-04-11T07:49:08.148Z,98817.67
2019-04-11T07:51:56.642Z,98815.70
2019-04-11T07:54:30.794Z,98815.92
2019-04-11T07:57:17.796Z,98799.94
2019-04-11T08:00:09.733Z,98796.66
2019-04-11T08:03:09.964Z,98795.22
2019-04-11T08:06:22.282Z,98789.78
2019-04-11T08:09:15.293Z,98783.20
2019-04-11T08:11:56.944Z,98779.34
2019-04-11T08:14:48.866Z,98774.69
2019-04-11T08:17:36.860Z,98768.04
2019-04-11T08:20:23.431Z,98768.89
2019-04-11T08:23:00.739Z,98766.64
2019-04-11T08:25:53.755Z,98764.41
2019-04-11T08:28:28.961Z,98759.48
2019-04-11T08:31:15.145Z,98755.33
2019-04-11T08:33:50.963Z,98750.92
2019-04-11T08:37:02.970Z,98748.16
2019-04-11T08:39:45.087Z,98745.70
2019-04-11T08:42:37.817Z,98744.04
2019-04-11T08:45:14.640Z,98738.81
2019-04-11T08:47:54.604Z,98731.92
2019-04-11T08:50:31.728Z,98729.11
2019-04-11T08:53:30.918Z,98724.69
2019-04-11T08:56:05.641Z,98721.13
2019-04-11T08:58:57.414Z,98711.67
2019-04-11T09:01:32.018Z,98712.78
2019-04-11T09:04:23.971Z,98708.64
2019-04-11T09:06:58.602Z,98697.92
2019-04-11T09:10:11.523Z,98695.95
2019-04-11T09:12:55.055Z,98694.84
2019-04-11T09:15:46.888Z,98689.27
2019-04-11T09:18:21.834Z,98689.27
2019-04-11T09:21:13.610Z,98687.59
2019-04-11T09:23:48.339Z,98678.22
2019-04-11T09:26:41.089Z,98662.50
2019-04-11T09:29:15.948Z,98666.63
2019-04-11T09:32:18.202Z,98658.08
2019-04-11T09:34:59.805Z,98659.44
2019-04-11T09:37:37.807Z,98651.97
2019-04-11T09:40:31.966Z,98653.30
2019-04-11T09:43:18.006Z,98645.83
2019-04-11T09:46:10.265Z,98645.83
2019-04-11T09:49:12.366Z,98636.94
2019-04-11T09:52:17.799Z,98638.29
2019-04-11T09:54:59.002Z,98637.52
2019-04-11T09:57:36.708Z,98631.10
2019-04-11T10:00:22.740Z,98621.72
2019-04-11T10:03:00.743Z,98625.65
2019-04-11T10:05:46.952Z,98622.61
2019-04-11T10:08:43.700Z,98613.34
2019-04-11T10:11:55.202Z,98621.05
2019-04-11T10:14:31.598Z,98621.59
2019-04-11T10:17:43.364Z,98620.97
2019-04-11T10:20:18.876Z,98602.89
2019-04-11T10:23:12.438Z,98600.05
2019-04-11T10:26:05.450Z,98599.55
2019-04-11T10:28:58.060Z,98599.87
2019-04-11T10:31:34.715Z,98599.01
2019-04-11T10:34:24.371Z,98589.93
2019-04-11T10:37:09.589Z,98597.59
2019-04-11T10:40:02.036Z,98592.76
2019-04-11T10:42:36.837Z,98587.06
2019-04-11T10:45:20.603Z,98579.90
2019-04-11T10:48:01.230Z,98586.51
2019-04-11T10:50:53.153Z,98575.21
2019-04-11T10:53:28.173Z,98583.13
2019-04-11T10:56:22.163Z,98581.47
2019-04-11T10:58:59.443Z,98582.00
2019-04-11T11:02:04.796Z,98576.33
2019-04-11T11:04:48.838Z,98575.21
2019-04-11T11:07:28.697Z,98571.11
2019-04-11T11:10:09.234Z,98565.89
2019-04-11T11:13:14.252Z,98568.61
2019-04-11T11:15:52.868Z,98560.63
2019-04-11T11:19:15.337Z,98563.64
2019-04-11T11:21:29.744Z,98557.86
2019-04-11T11:24:20.058Z,98558.48
2019-04-11T11:26:57.925Z,98561.98
2019-04-11T11:29:47.718Z,98559.69
2019-04-11T11:32:31.585Z,98558.88
2019-04-11T11:35:28.302Z,98561.98
2019-04-11T11:38:07.851Z,98557.68
2019-04-11T11:41:03.822Z,98564.17
2019-04-11T11:43:39.091Z,98563.58
2019-04-11T11:46:40.426Z,98560.77
2019-04-11T11:49:36.267Z,98562.47
2019-04-11T11:52:13.691Z,98563.37
2019-04-11T11:54:53.651Z,98565.19
2019-04-11T11:57:59.201Z,98566.25
2019-04-11T12:00:34.746Z,98568.41
2019-04-11T12:03:26.433Z,98566.27
2019-04-11T12:06:05.378Z,98558.38
2019-04-11T12:08:58.226Z,98562.36
2019-04-11T12:11:30.949Z,98551.84
2019-04-11T12:14:27.479Z,98559.02
2019-04-11T12:17:11.866Z,98560.88
2019-04-11T12:20:16.394Z,98556.36
2019-04-11T12:22:52.103Z,98561.91
2019-04-11T12:25:33.495Z,98558.30
2019-04-11T12:28:25.726Z,98563.53
2019-04-11T12:31:07.146Z,98559.12
2019-04-11T12:34:08.541Z,98559.47
2019-04-11T12:36:50.137Z,98567.66
2019-04-11T12:39:42.054Z,98567.30
2019-04-11T12:42:22.264Z,98564.09
2019-04-11T12:45:33.791Z,98561.98
2019-04-11T12:48:11.918Z,98569.26
2019-04-11T12:51:02.964Z,98569.25
2019-04-11T12:53:36.937Z,98567.04
2019-04-11T12:56:30.797Z,98570.70
2019-04-11T12:59:17.363Z,98559.81
2019-04-11T13:02:08.144Z,98569.11
2019-04-11T13:04:46.725Z,98566.08
2019-04-11T13:07:45.397Z,98564.02
2019-04-11T13:10:24.207Z,98564.78
2019-04-11T13:13:20.102Z,98566.05
2019-04-11T13:16:22.838Z,98565.39
2019-04-11T13:19:04.596Z,98573.05
2019-04-11T13:21:46.136Z,98572.95
2019-04-11T13:24:39.492Z,98582.50
2019-04-11T13:27:32.546Z,98586.91
2019-04-11T13:30:24.930Z,98600.52
2019-04-11T13:33:01.012Z,98603.20
2019-04-11T13:35:53.844Z,98604.80
2019-04-11T13:38:37.516Z,98607.53
2019-04-11T13:41:29.554Z,98611.34
2019-04-11T13:44:21.960Z,98611.84
2019-04-11T13:47:20.549Z,98613.69
2019-04-11T13:50:00.664Z,98616.43
2019-04-11T13:52:49.366Z,98617.71
2019-04-11T13:55:28.344Z,98622.89
2019-04-11T13:58:19.632Z,98627.23
2019-04-11T14:01:01.742Z,98631.09
2019-04-11T14:04:01.254Z,98626.39
2019-04-11T14:06:37.128Z,98631.97
2019-04-11T14:09:34.384Z,98633.26
2019-04-11T14:12:12.710Z,98646.94
2019-04-11T14:15:06.359Z,98654.02
2019-04-11T14:17:51.417Z,98663.00
2019-04-11T14:20:41.787Z,98663.66
2019-04-11T14:23:34.141Z,98664.78
2019-04-11T14:26:29.854Z,98665.94
2019-04-11T14:29:32.279Z,98665.66
2019-04-11T14:32:25.012Z,98670.08
2019-04-11T14:35:16.142Z,98677.25
2019-04-11T14:38:09.195Z,98680.29
2019-04-11T14:41:01.827Z,98686.88
2019-04-11T14:43:45.894Z,98691.02
2019-04-11T14:46:38.080Z,98691.83
2019-04-11T14:49:16.723Z,98692.67
2019-04-11T14:52:08.639Z,98695.70
2019-04-11T14:54:49.276Z,98691.00
2019-04-11T14:57:31.572Z,98693.19
2019-04-11T15:00:17.516Z,98700.35
2019-04-11T15:03:04.164Z,98704.77
2019-04-11T15:05:46.457Z,98707.23
2019-04-11T15:08:38.766Z,98713.55
2019-04-11T15:11:27.664Z,98714.64
2019-04-11T15:14:12.675Z,98719.86
2019-04-11T15:17:04.601Z,98717.95
2019-04-11T15:19:38.728Z,98720.69
2019-04-11T15:22:25.211Z,98725.91
2019-04-11T15:25:07.811Z,98725.06
2019-04-11T15:28:12.360Z,98724.78
2019-04-11T15:30:48.222Z,98727.81
2019-04-11T15:33:47.865Z,98728.91
2019-04-11T15:36:22.501Z,98732.50
2019-04-11T15:39:18.338Z,98734.97
2019-04-11T15:42:01.445Z,98738.24
2019-04-11T15:44:48.920Z,98740.27
2019-04-11T15:47:23.208Z,98740.84
2019-04-11T15:50:16.182Z,98742.75
2019-04-11T15:52:55.239Z,98735.61
2019-04-11T15:55:58.298Z,98735.02
2019-04-11T15:58:42.442Z,98733.03
2019-04-11T16:01:35.067Z,98733.35
2019-04-11T16:04:22.802Z,98733.41
2019-04-11T16:07:22.365Z,98722.72
2019-04-11T16:09:56.953Z,98733.03
2019-04-11T16:12:39.640Z,98731.45
2019-04-11T16:15:16.120Z,98737.41
2019-04-11T16:18:15.824Z,98736.61
2019-04-11T16:20:51.820Z,98736.27
2019-04-11T16:23:43.542Z,98739.93
2019-04-11T16:26:22.195Z,98743.23
2019-04-11T16:29:16.097Z,98746.08
2019-04-11T16:31:50.387Z,98735.67
2019-04-11T16:34:48.551Z,98739.56
2019-04-11T16:37:19.329Z,98736.75
2019-04-11T16:40:14.879Z,98739.84
2019-04-11T16:42:53.879Z,98742.58
2019-04-11T16:45:45.633Z,98736.52
2019-04-11T16:48:19.547Z,98733.17
2019-04-11T16:50:53.763Z,98729.83
2019-04-11T16:53:27.994Z,98730.27
2019-04-11T16:56:02.374Z,98732.61
2019-04-11T16:58:36.384Z,98738.41
2019-04-11T17:01:10.638Z,98744.68
2019-04-11T17:03:44.845Z,98741.15
2019-04-11T17:06:40.360Z,98742.68
2019-04-11T17:09:26.621Z,98742.94
2019-04-11T17:11:59.504Z,98744.50
2019-04-11T17:14:33.810Z,98736.30
2019-04-11T17:17:14.940Z,98739.38
2019-04-11T17:19:44.028Z,98733.69
2019-04-11T17:22:18.913Z,98731.47
2019-04-11T17:24:53.588Z,98737.09
2019-04-11T17:27:27.630Z,98736.68
2019-04-11T17:30:01.890Z,98733.61
2019-04-11T17:32:36.065Z,98735.02
2019-04-11T17:35:10.287Z,98737.87
2019-04-11T17:37:44.583Z,98735.49
2019-04-11T17:40:18.683Z,98736.02
2019-04-11T17:42:52.892Z,98729.03
2019-04-11T17:45:27.173Z,98731.33
2019-04-11T17:48:01.483Z,98729.03
2019-04-11T17:50:35.845Z,98720.56
2019-04-11T17:53:09.936Z,98727.00
2019-04-11T17:55:44.051Z,98724.81
2019-04-11T17:58:18.460Z,98728.94
2019-04-11T18:01:00.510Z,98724.89
2019-04-11T18:03:35.533Z,98729.13
2019-04-11T18:06:10.624Z,98729.01
2019-04-11T18:08:46.618Z,98717.12
2019-04-11T18:11:20.785Z,98728.30
2019-04-11T18:13:55.191Z,98723.52
2019-04-11T18:16:31.680Z,98719.53
2019-04-11T18:19:06.055Z,98723.30
2019-04-11T18:21:40.872Z,98721.56
2019-04-11T18:24:15.147Z,98719.55
2019-04-11T18:26:51.761Z,98713.55
2019-04-11T18:29:25.728Z,98715.05
2019-04-11T18:32:00.071Z,98711.02
2019-04-11T18:34:34.457Z,98714.17
2019-04-11T18:37:09.004Z,98711.73
2019-04-11T18:39:43.416Z,98714.17
2019-04-11T18:42:17.732Z,98714.69
2019-04-11T18:44:51.924Z,98713.98
2019-04-11T18:47:27.205Z,98713.02
2019-04-11T18:50:01.379Z,98711.16
2019-04-11T18:52:36.804Z,98705.89
2019-04-11T18:55:11.304Z,98713.37
2019-04-11T18:57:45.688Z,98713.63
2019-04-11T19:00:21.845Z,98708.38
2019-04-11T19:02:56.314Z,98711.67
2019-04-11T19:05:30.646Z,98706.05
2019-04-11T19:08:04.939Z,98707.59
2019-04-11T19:10:39.357Z,98709.85
2019-04-11T19:13:16.696Z,98707.87
2019-04-11T19:15:49.436Z,98708.58
2019-04-11T19:18:23.883Z,98706.02
2019-04-11T19:20:58.084Z,98704.12
2019-04-11T19:23:32.296Z,98698.81
2019-04-11T19:26:06.472Z,98692.89
2019-04-11T19:28:40.736Z,98688.36
2019-04-11T19:31:15.049Z,98698.75
2019-04-11T19:33:48.910Z,98698.52
2019-04-11T19:36:23.161Z,98701.55
2019-04-11T19:38:57.153Z,98695.94
2019-04-11T19:41:31.505Z,98701.56
2019-04-11T19:44:06.021Z,98709.22
2019-04-11T19:46:40.994Z,98707.04
2019-04-11T19:49:15.098Z,98704.58
2019-04-11T19:51:50.871Z,98706.41
2019-04-11T19:54:26.068Z,98706.33
2019-04-11T19:57:09.618Z,98706.56
2019-04-11T19:59:43.785Z,98706.30
2019-04-11T20:02:17.791Z,98712.19
2019-04-11T20:04:51.797Z,98708.95
2019-04-11T20:07:26.018Z,98708.03
2019-04-11T20:10:00.899Z,98708.03
2019-04-11T20:12:36.550Z,98706.06
2019-04-11T20:15:10.651Z,98708.56
2019-04-11T20:17:45.103Z,98710.02
2019-04-11T20:20:19.379Z,98709.98
2019-04-11T20:22:59.148Z,98714.83
2019-04-11T20:25:29.463Z,98716.19
2019-04-11T20:28:03.686Z,98725.35
2019-04-11T20:30:37.876Z,98727.05
2019-04-11T20:33:11.868Z,98726.77
2019-04-11T20:35:46.206Z,98724.23
2019-04-11T20:38:20.357Z,98732.74
2019-04-11T20:40:54.309Z,98730.63
2019-04-11T20:43:29.551Z,98735.66
2019-04-11T20:46:05.233Z,98729.61
2019-04-11T20:48:40.004Z,98729.61
2019-04-11T20:51:14.442Z,98729.61
2019-04-11T20:53:48.766Z,98739.05
2019-04-11T20:56:24.487Z,98737.55
2019-04-11T20:58:59.331Z,98737.13
2019-04-11T21:01:33.467Z,98739.56
2019-04-11T21:04:07.723Z,98748.66
2019-04-11T21:06:42.012Z,98746.61
2019-04-11T21:09:16.409Z,98747.12
2019-04-11T21:11:50.712Z,98753.50
2019-04-11T21:14:24.675Z,98748.33
2019-04-11T21:16:58.885Z,98743.90
2019-04-11T21:19:32.889Z,98747.42
2019-04-11T21:22:07.190Z,98739.81
2019-04-11T21:24:41.640Z,98744.18
2019-04-11T21:27:15.592Z,98748.48
2019-04-11T21:29:49.800Z,98754.67
2019-04-11T21:32:23.854Z,98752.95
2019-04-11T21:35:01.741Z,98753.67
2019-04-11T21:37:36.639Z,98755.70
2019-04-11T21:40:10.519Z,98754.66
2019-04-11T21:42:44.805Z,98747.98
2019-04-11T21:45:18.985Z,98752.64
2019-04-11T21:47:59.470Z,98757.39
2019-04-11T21:50:33.927Z,98757.46
2019-04-11T21:53:08.247Z,98758.72
2019-04-11T21:55:47.438Z,98757.63
2019-04-11T21:58:20.111Z,98749.06
2019-04-11T22:01:01.268Z,98759.34
2019-04-11T22:03:36.920Z,98759.19
2019-04-11T22:06:11.083Z,98760.24
2019-04-11T22:08:45.547Z,98763.73
2019-04-11T22:11:19.920Z,98763.17
2019-04-11T22:13:54.154Z,98763.59
2019-04-11T22:16:28.538Z,98765.97
2019-04-11T22:19:03.122Z,98765.14
2019-04-11T22:21:37.284Z,98771.11
2019-04-11T22:24:11.628Z,98765.57
2019-04-11T22:26:50.189Z,98771.56
2019-04-11T22:29:24.847Z,98775.39
2019-04-11T22:31:58.188Z,98773.47
2019-04-11T22:34:44.092Z,98779.61
2019-04-11T22:37:18.282Z,98787.99
2019-04-11T22:39:52.445Z,98789.07
2019-04-11T22:42:26.914Z,98796.17
2019-04-11T22:45:01.101Z,98792.93
2019-04-11T22:47:35.972Z,98797.92
2019-04-11T22:50:11.413Z,98797.67
2019-04-11T22:52:45.951Z,98798.59
2019-04-11T22:55:20.336Z,98799.08
2019-04-11T22:57:54.729Z,98807.28
2019-04-11T23:00:28.825Z,98807.56
2019-04-11T23:03:21.673Z,98814.85
2019-04-11T23:05:54.308Z,98815.39
2019-04-11T23:08:28.490Z,98819.44
2019-04-11T23:11:02.764Z,98829.14
2019-04-11T23:13:37.095Z,98830.88
2019-04-11T23:16:12.027Z,98836.00
2019-04-11T23:18:47.076Z,98836.55
2019-04-11T23:21:20.996Z,98833.96
2019-04-11T23:23:55.125Z,98836.17
2019-04-11T23:26:29.277Z,98839.47
2019-04-11T23:29:03.213Z,98843.25
2019-04-11T23:31:37.397Z,98845.19
2019-04-11T23:34:11.922Z,98841.44
2019-04-11T23:36:45.760Z,98841.14
2019-04-11T23:39:22.668Z,98834.69
2019-04-11T23:41:56.149Z,98843.94
2019-04-11T23:44:30.499Z,98847.48
2019-04-11T23:47:04.733Z,98851.91
2019-04-11T23:49:39.031Z,98852.66
2019-04-11T23:52:13.339Z,98854.14
2019-04-11T23:54:47.721Z,98852.91
2019-04-11T23:57:21.901Z,98855.06
2019-04-11T23:59:56.217Z,98854.19
